sensor_id;sensor_type;location;lat;lon;timestamp;P1;durP1;ratioP1;P2;durP2;ratioP2
73850;SDS011;62190;51.548;5.688;2023-09-08T00:00:34;19.02;;;13.43;;
73850;SDS011;62190;51.548;5.688;2023-09-08T00:03:02;22.00;;;15.32;;
73850;SDS011;62190;51.548;5.688;2023-09-08T00:05:29;19.40;;;13.70;;
73850;SDS011;62190;51.548;5.688;2023-09-08T00:07:56;19.60;;;14.40;;
73850;SDS011;62190;51.548;5.688;2023-09-08T00:10:26;24.85;;;16.67;;
73850;SDS011;62190;51.548;5.688;2023-09-08T00:12:56;21.85;;;16.17;;
73850;SDS011;62190;51.548;5.688;2023-09-08T00:15:23;21.85;;;16.10;;
73850;SDS011;62190;51.548;5.688;2023-09-08T00:17:52;22.75;;;16.95;;
73850;SDS011;62190;51.548;5.688;2023-09-08T00:20:19;24.02;;;16.85;;
73850;SDS011;62190;51.548;5.688;2023-09-08T00:22:46;23.83;;;17.30;;
73850;SDS011;62190;51.548;5.688;2023-09-08T00:25:14;26.37;;;17.48;;
73850;SDS011;62190;51.548;5.688;2023-09-08T00:27:41;25.48;;;16.42;;
73850;SDS011;62190;51.548;5.688;2023-09-08T00:30:08;27.00;;;16.67;;
73850;SDS011;62190;51.548;5.688;2023-09-08T00:32:37;22.22;;;15.15;;
73850;SDS011;62190;51.548;5.688;2023-09-08T00:35:08;23.47;;;15.50;;
73850;SDS011;62190;51.548;5.688;2023-09-08T00:37:39;19.90;;;15.90;;
73850;SDS011;62190;51.548;5.688;2023-09-08T00:40:07;20.70;;;14.58;;
73850;SDS011;62190;51.548;5.688;2023-09-08T00:42:34;25.32;;;15.75;;
73850;SDS011;62190;51.548;5.688;2023-09-08T00:45:02;25.45;;;18.15;;
73850;SDS011;62190;51.548;5.688;2023-09-08T00:47:30;31.35;;;19.27;;
73850;SDS011;62190;51.548;5.688;2023-09-08T00:50:02;27.37;;;18.42;;
73850;SDS011;62190;51.548;5.688;2023-09-08T00:52:31;26.25;;;17.52;;
73850;SDS011;62190;51.548;5.688;2023-09-08T00:54:59;24.12;;;17.05;;
73850;SDS011;62190;51.548;5.688;2023-09-08T00:57:28;26.10;;;17.35;;
73850;SDS011;62190;51.548;5.688;2023-09-08T00:59:55;27.10;;;18.75;;
73850;SDS011;62190;51.548;5.688;2023-09-08T01:02:25;27.37;;;19.50;;
73850;SDS011;62190;51.548;5.688;2023-09-08T01:04:53;28.38;;;19.32;;
73850;SDS011;62190;51.548;5.688;2023-09-08T01:07:20;33.25;;;21.27;;
73850;SDS011;62190;51.548;5.688;2023-09-08T01:09:48;33.18;;;21.05;;
73850;SDS011;62190;51.548;5.688;2023-09-08T01:12:16;40.55;;;24.60;;
73850;SDS011;62190;51.548;5.688;2023-09-08T01:14:43;37.05;;;22.73;;
73850;SDS011;62190;51.548;5.688;2023-09-08T01:17:10;32.08;;;22.98;;
73850;SDS011;62190;51.548;5.688;2023-09-08T01:19:39;36.88;;;22.07;;
73850;SDS011;62190;51.548;5.688;2023-09-08T01:22:22;38.45;;;24.20;;
73850;SDS011;62190;51.548;5.688;2023-09-08T01:25:03;34.70;;;22.40;;
73850;SDS011;62190;51.548;5.688;2023-09-08T01:27:29;31.57;;;21.85;;
73850;SDS011;62190;51.548;5.688;2023-09-08T01:29:59;33.53;;;22.87;;
73850;SDS011;62190;51.548;5.688;2023-09-08T01:32:29;34.75;;;24.00;;
73850;SDS011;62190;51.548;5.688;2023-09-08T01:34:57;36.55;;;23.35;;
73850;SDS011;62190;51.548;5.688;2023-09-08T01:37:25;32.00;;;22.05;;
73850;SDS011;62190;51.548;5.688;2023-09-08T01:39:54;39.75;;;25.20;;
73850;SDS011;62190;51.548;5.688;2023-09-08T01:42:22;39.53;;;25.15;;
73850;SDS011;62190;51.548;5.688;2023-09-08T01:44:49;35.73;;;24.23;;
73850;SDS011;62190;51.548;5.688;2023-09-08T01:47:16;39.35;;;26.90;;
73850;SDS011;62190;51.548;5.688;2023-09-08T01:49:44;37.45;;;25.72;;
73850;SDS011;62190;51.548;5.688;2023-09-08T01:52:11;36.53;;;25.32;;
73850;SDS011;62190;51.548;5.688;2023-09-08T01:54:38;43.02;;;25.57;;
73850;SDS011;62190;51.548;5.688;2023-09-08T01:57:07;37.83;;;24.92;;
73850;SDS011;62190;51.548;5.688;2023-09-08T01:59:36;36.60;;;23.40;;
73850;SDS011;62190;51.548;5.688;2023-09-08T02:02:03;39.15;;;24.70;;
73850;SDS011;62190;51.548;5.688;2023-09-08T02:04:32;37.25;;;24.45;;
73850;SDS011;62190;51.548;5.688;2023-09-08T02:07:01;38.45;;;25.65;;
73850;SDS011;62190;51.548;5.688;2023-09-08T02:09:35;39.23;;;25.85;;
73850;SDS011;62190;51.548;5.688;2023-09-08T02:11:59;37.67;;;26.10;;
73850;SDS011;62190;51.548;5.688;2023-09-08T02:14:26;35.55;;;24.50;;
73850;SDS011;62190;51.548;5.688;2023-09-08T02:16:54;41.15;;;26.12;;
73850;SDS011;62190;51.548;5.688;2023-09-08T02:19:22;38.20;;;25.25;;
73850;SDS011;62190;51.548;5.688;2023-09-08T02:21:49;38.50;;;25.77;;
73850;SDS011;62190;51.548;5.688;2023-09-08T02:24:18;49.42;;;30.50;;
73850;SDS011;62190;51.548;5.688;2023-09-08T02:26:46;43.08;;;28.02;;
73850;SDS011;62190;51.548;5.688;2023-09-08T02:29:14;40.50;;;26.05;;
73850;SDS011;62190;51.548;5.688;2023-09-08T02:31:42;34.67;;;23.65;;
73850;SDS011;62190;51.548;5.688;2023-09-08T02:34:10;35.85;;;24.35;;
73850;SDS011;62190;51.548;5.688;2023-09-08T02:36:38;37.70;;;22.93;;
73850;SDS011;62190;51.548;5.688;2023-09-08T02:39:07;41.60;;;25.68;;
73850;SDS011;62190;51.548;5.688;2023-09-08T02:41:36;45.15;;;27.42;;
73850;SDS011;62190;51.548;5.688;2023-09-08T02:44:04;44.40;;;27.25;;
73850;SDS011;62190;51.548;5.688;2023-09-08T02:46:32;48.63;;;29.80;;
73850;SDS011;62190;51.548;5.688;2023-09-08T02:49:00;44.48;;;30.60;;
73850;SDS011;62190;51.548;5.688;2023-09-08T02:51:30;44.23;;;28.23;;
73850;SDS011;62190;51.548;5.688;2023-09-08T02:53:58;43.68;;;28.23;;
73850;SDS011;62190;51.548;5.688;2023-09-08T02:56:26;45.88;;;28.07;;
73850;SDS011;62190;51.548;5.688;2023-09-08T02:58:53;44.50;;;28.77;;
73850;SDS011;62190;51.548;5.688;2023-09-08T03:01:20;41.37;;;25.62;;
73850;SDS011;62190;51.548;5.688;2023-09-08T03:03:48;40.43;;;26.40;;
73850;SDS011;62190;51.548;5.688;2023-09-08T03:06:19;36.75;;;25.25;;
73850;SDS011;62190;51.548;5.688;2023-09-08T03:08:46;43.90;;;27.48;;
73850;SDS011;62190;51.548;5.688;2023-09-08T03:11:14;38.05;;;25.90;;
73850;SDS011;62190;51.548;5.688;2023-09-08T03:13:45;39.45;;;26.42;;
73850;SDS011;62190;51.548;5.688;2023-09-08T03:16:12;41.63;;;26.27;;
73850;SDS011;62190;51.548;5.688;2023-09-08T03:18:39;34.33;;;23.65;;
73850;SDS011;62190;51.548;5.688;2023-09-08T03:21:07;37.35;;;23.75;;
73850;SDS011;62190;51.548;5.688;2023-09-08T03:23:36;40.85;;;26.93;;
73850;SDS011;62190;51.548;5.688;2023-09-08T03:26:04;38.48;;;25.48;;
73850;SDS011;62190;51.548;5.688;2023-09-08T03:28:34;39.83;;;25.82;;
73850;SDS011;62190;51.548;5.688;2023-09-08T03:31:02;42.33;;;26.00;;
73850;SDS011;62190;51.548;5.688;2023-09-08T03:33:30;45.65;;;27.95;;
73850;SDS011;62190;51.548;5.688;2023-09-08T03:35:58;43.92;;;27.58;;
73850;SDS011;62190;51.548;5.688;2023-09-08T03:38:25;41.15;;;26.62;;
73850;SDS011;62190;51.548;5.688;2023-09-08T03:40:52;37.73;;;24.20;;
73850;SDS011;62190;51.548;5.688;2023-09-08T03:43:21;46.40;;;28.73;;
73850;SDS011;62190;51.548;5.688;2023-09-08T03:45:54;40.05;;;26.35;;
73850;SDS011;62190;51.548;5.688;2023-09-08T03:48:21;44.58;;;28.20;;
73850;SDS011;62190;51.548;5.688;2023-09-08T03:50:48;44.40;;;26.33;;
73850;SDS011;62190;51.548;5.688;2023-09-08T03:53:17;36.85;;;23.45;;
73850;SDS011;62190;51.548;5.688;2023-09-08T03:55:46;44.33;;;28.23;;
73850;SDS011;62190;51.548;5.688;2023-09-08T03:58:15;50.17;;;28.05;;
73850;SDS011;62190;51.548;5.688;2023-09-08T04:00:42;38.60;;;25.75;;
73850;SDS011;62190;51.548;5.688;2023-09-08T04:03:10;40.17;;;25.10;;
73850;SDS011;62190;51.548;5.688;2023-09-08T04:05:38;37.00;;;23.32;;
73850;SDS011;62190;51.548;5.688;2023-09-08T04:08:05;52.20;;;28.23;;
73850;SDS011;62190;51.548;5.688;2023-09-08T04:10:35;44.15;;;26.85;;
73850;SDS011;62190;51.548;5.688;2023-09-08T04:13:02;42.38;;;26.55;;
73850;SDS011;62190;51.548;5.688;2023-09-08T04:15:30;36.70;;;25.72;;
73850;SDS011;62190;51.548;5.688;2023-09-08T04:17:57;40.23;;;25.75;;
73850;SDS011;62190;51.548;5.688;2023-09-08T04:20:24;55.35;;;29.55;;
73850;SDS011;62190;51.548;5.688;2023-09-08T04:22:52;53.65;;;31.70;;
73850;SDS011;62190;51.548;5.688;2023-09-08T04:25:22;52.88;;;31.10;;
73850;SDS011;62190;51.548;5.688;2023-09-08T04:27:50;52.83;;;31.77;;
73850;SDS011;62190;51.548;5.688;2023-09-08T04:30:19;57.30;;;32.98;;
73850;SDS011;62190;51.548;5.688;2023-09-08T04:32:47;57.00;;;31.00;;
73850;SDS011;62190;51.548;5.688;2023-09-08T04:35:14;49.83;;;31.25;;
73850;SDS011;62190;51.548;5.688;2023-09-08T04:37:41;50.75;;;30.45;;
73850;SDS011;62190;51.548;5.688;2023-09-08T04:40:09;55.92;;;33.90;;
73850;SDS011;62190;51.548;5.688;2023-09-08T04:42:37;54.50;;;31.62;;
73850;SDS011;62190;51.548;5.688;2023-09-08T04:45:05;53.40;;;30.68;;
73850;SDS011;62190;51.548;5.688;2023-09-08T04:47:34;50.43;;;32.53;;
73850;SDS011;62190;51.548;5.688;2023-09-08T04:50:01;55.90;;;30.48;;
73850;SDS011;62190;51.548;5.688;2023-09-08T04:52:30;61.70;;;33.10;;
73850;SDS011;62190;51.548;5.688;2023-09-08T04:54:57;54.23;;;32.45;;
73850;SDS011;62190;51.548;5.688;2023-09-08T04:57:25;64.03;;;34.65;;
73850;SDS011;62190;51.548;5.688;2023-09-08T04:59:54;66.57;;;36.42;;
73850;SDS011;62190;51.548;5.688;2023-09-08T05:02:23;61.77;;;34.65;;
73850;SDS011;62190;51.548;5.688;2023-09-08T05:04:50;52.03;;;31.68;;
73850;SDS011;62190;51.548;5.688;2023-09-08T05:07:17;51.95;;;30.62;;
73850;SDS011;62190;51.548;5.688;2023-09-08T05:09:44;49.03;;;30.68;;
73850;SDS011;62190;51.548;5.688;2023-09-08T05:12:12;62.05;;;35.65;;
73850;SDS011;62190;51.548;5.688;2023-09-08T05:14:40;65.20;;;36.17;;
73850;SDS011;62190;51.548;5.688;2023-09-08T05:17:07;60.52;;;34.85;;
73850;SDS011;62190;51.548;5.688;2023-09-08T05:19:34;70.42;;;37.55;;
73850;SDS011;62190;51.548;5.688;2023-09-08T05:22:04;69.15;;;39.10;;
73850;SDS011;62190;51.548;5.688;2023-09-08T05:24:33;76.85;;;39.48;;
73850;SDS011;62190;51.548;5.688;2023-09-08T05:27:03;63.15;;;35.38;;
73850;SDS011;62190;51.548;5.688;2023-09-08T05:29:30;67.15;;;39.60;;
73850;SDS011;62190;51.548;5.688;2023-09-08T05:31:57;68.25;;;40.60;;
73850;SDS011;62190;51.548;5.688;2023-09-08T05:34:24;73.57;;;42.10;;
73850;SDS011;62190;51.548;5.688;2023-09-08T05:36:52;70.25;;;40.85;;
73850;SDS011;62190;51.548;5.688;2023-09-08T05:39:19;68.45;;;36.63;;
73850;SDS011;62190;51.548;5.688;2023-09-08T05:41:48;68.78;;;39.78;;
73850;SDS011;62190;51.548;5.688;2023-09-08T05:44:15;59.73;;;36.77;;
73850;SDS011;62190;51.548;5.688;2023-09-08T05:46:43;65.85;;;35.92;;
73850;SDS011;62190;51.548;5.688;2023-09-08T05:49:10;55.78;;;36.63;;
73850;SDS011;62190;51.548;5.688;2023-09-08T05:51:39;52.98;;;36.55;;
73850;SDS011;62190;51.548;5.688;2023-09-08T05:54:06;53.75;;;35.25;;
73850;SDS011;62190;51.548;5.688;2023-09-08T05:56:36;54.45;;;36.00;;
73850;SDS011;62190;51.548;5.688;2023-09-08T05:59:04;50.80;;;33.75;;
73850;SDS011;62190;51.548;5.688;2023-09-08T06:01:31;47.00;;;32.95;;
73850;SDS011;62190;51.548;5.688;2023-09-08T06:03:58;42.98;;;33.38;;
73850;SDS011;62190;51.548;5.688;2023-09-08T06:06:26;35.33;;;28.73;;
73850;SDS011;62190;51.548;5.688;2023-09-08T06:08:54;31.62;;;25.08;;
73850;SDS011;62190;51.548;5.688;2023-09-08T06:11:23;30.08;;;24.57;;
73850;SDS011;62190;51.548;5.688;2023-09-08T06:13:50;24.18;;;20.92;;
73850;SDS011;62190;51.548;5.688;2023-09-08T06:16:19;20.62;;;18.23;;
73850;SDS011;62190;51.548;5.688;2023-09-08T06:18:46;20.05;;;16.95;;
73850;SDS011;62190;51.548;5.688;2023-09-08T06:21:14;20.88;;;17.48;;
73850;SDS011;62190;51.548;5.688;2023-09-08T06:23:43;19.25;;;16.40;;
73850;SDS011;62190;51.548;5.688;2023-09-08T06:26:10;18.90;;;15.90;;
73850;SDS011;62190;51.548;5.688;2023-09-08T06:28:39;20.02;;;15.43;;
73850;SDS011;62190;51.548;5.688;2023-09-08T06:31:08;17.75;;;14.85;;
73850;SDS011;62190;51.548;5.688;2023-09-08T06:33:35;15.63;;;13.98;;
73850;SDS011;62190;51.548;5.688;2023-09-08T06:36:02;18.50;;;14.50;;
73850;SDS011;62190;51.548;5.688;2023-09-08T06:38:30;19.00;;;13.72;;
73850;SDS011;62190;51.548;5.688;2023-09-08T06:40:58;26.52;;;16.12;;
73850;SDS011;62190;51.548;5.688;2023-09-08T06:43:26;17.02;;;13.70;;
73850;SDS011;62190;51.548;5.688;2023-09-08T06:45:53;16.25;;;14.45;;
73850;SDS011;62190;51.548;5.688;2023-09-08T06:48:21;16.65;;;14.10;;
73850;SDS011;62190;51.548;5.688;2023-09-08T06:50:48;19.62;;;13.48;;
73850;SDS011;62190;51.548;5.688;2023-09-08T06:53:15;18.90;;;13.40;;
73850;SDS011;62190;51.548;5.688;2023-09-08T06:55:42;17.70;;;14.25;;
73850;SDS011;62190;51.548;5.688;2023-09-08T06:58:10;17.20;;;14.13;;
73850;SDS011;62190;51.548;5.688;2023-09-08T07:00:39;19.67;;;15.03;;
73850;SDS011;62190;51.548;5.688;2023-09-08T07:03:06;20.65;;;15.95;;
73850;SDS011;62190;51.548;5.688;2023-09-08T07:05:38;15.43;;;13.10;;
73850;SDS011;62190;51.548;5.688;2023-09-08T07:08:07;13.95;;;12.45;;
73850;SDS011;62190;51.548;5.688;2023-09-08T07:10:35;18.20;;;12.47;;
73850;SDS011;62190;51.548;5.688;2023-09-08T07:13:02;15.53;;;13.85;;
73850;SDS011;62190;51.548;5.688;2023-09-08T07:15:29;16.77;;;13.05;;
73850;SDS011;62190;51.548;5.688;2023-09-08T07:17:57;14.60;;;12.25;;
73850;SDS011;62190;51.548;5.688;2023-09-08T07:20:24;12.98;;;11.80;;
73850;SDS011;62190;51.548;5.688;2023-09-08T07:22:51;15.08;;;11.08;;
73850;SDS011;62190;51.548;5.688;2023-09-08T07:25:20;14.87;;;10.40;;
73850;SDS011;62190;51.548;5.688;2023-09-08T07:27:47;13.32;;;11.30;;
73850;SDS011;62190;51.548;5.688;2023-09-08T07:30:17;13.93;;;10.15;;
73850;SDS011;62190;51.548;5.688;2023-09-08T07:32:44;14.70;;;11.95;;
73850;SDS011;62190;51.548;5.688;2023-09-08T07:35:12;14.58;;;11.68;;
73850;SDS011;62190;51.548;5.688;2023-09-08T07:37:41;14.38;;;11.38;;
73850;SDS011;62190;51.548;5.688;2023-09-08T07:40:09;12.18;;;10.85;;
73850;SDS011;62190;51.548;5.688;2023-09-08T07:42:37;15.03;;;11.30;;
73850;SDS011;62190;51.548;5.688;2023-09-08T07:45:05;12.20;;;10.63;;
73850;SDS011;62190;51.548;5.688;2023-09-08T07:47:34;12.95;;;11.55;;
73850;SDS011;62190;51.548;5.688;2023-09-08T07:50:16;11.88;;;10.70;;
73850;SDS011;62190;51.548;5.688;2023-09-08T07:52:48;11.93;;;10.08;;
73850;SDS011;62190;51.548;5.688;2023-09-08T07:55:17;10.32;;;8.75;;
73850;SDS011;62190;51.548;5.688;2023-09-08T07:57:45;13.00;;;9.88;;
73850;SDS011;62190;51.548;5.688;2023-09-08T08:00:13;9.35;;;8.45;;
73850;SDS011;62190;51.548;5.688;2023-09-08T08:02:46;10.05;;;8.58;;
73850;SDS011;62190;51.548;5.688;2023-09-08T08:05:11;11.15;;;8.23;;
73850;SDS011;62190;51.548;5.688;2023-09-08T08:07:40;11.22;;;8.65;;
73850;SDS011;62190;51.548;5.688;2023-09-08T08:10:10;9.73;;;8.68;;
73850;SDS011;62190;51.548;5.688;2023-09-08T08:12:39;9.03;;;8.13;;
73850;SDS011;62190;51.548;5.688;2023-09-08T08:15:07;9.58;;;8.15;;
73850;SDS011;62190;51.548;5.688;2023-09-08T08:17:38;10.88;;;7.97;;
73850;SDS011;62190;51.548;5.688;2023-09-08T08:20:06;10.10;;;7.37;;
73850;SDS011;62190;51.548;5.688;2023-09-08T08:22:35;8.83;;;7.92;;
73850;SDS011;62190;51.548;5.688;2023-09-08T08:25:03;11.05;;;8.43;;
73850;SDS011;62190;51.548;5.688;2023-09-08T08:27:31;11.40;;;8.38;;
73850;SDS011;62190;51.548;5.688;2023-09-08T08:29:58;10.43;;;7.53;;
73850;SDS011;62190;51.548;5.688;2023-09-08T08:32:32;8.30;;;7.08;;
73850;SDS011;62190;51.548;5.688;2023-09-08T08:34:55;7.53;;;6.70;;
73850;SDS011;62190;51.548;5.688;2023-09-08T08:37:22;7.87;;;6.22;;
73850;SDS011;62190;51.548;5.688;2023-09-08T08:39:50;10.43;;;7.12;;
73850;SDS011;62190;51.548;5.688;2023-09-08T08:42:17;8.25;;;6.25;;
73850;SDS011;62190;51.548;5.688;2023-09-08T08:44:46;8.05;;;7.15;;
73850;SDS011;62190;51.548;5.688;2023-09-08T08:47:13;6.62;;;5.72;;
73850;SDS011;62190;51.548;5.688;2023-09-08T08:49:42;7.28;;;5.60;;
73850;SDS011;62190;51.548;5.688;2023-09-08T08:52:13;7.10;;;5.25;;
73850;SDS011;62190;51.548;5.688;2023-09-08T08:54:41;8.78;;;6.35;;
73850;SDS011;62190;51.548;5.688;2023-09-08T08:57:08;7.17;;;6.25;;
73850;SDS011;62190;51.548;5.688;2023-09-08T08:59:36;7.87;;;5.83;;
73850;SDS011;62190;51.548;5.688;2023-09-08T09:02:03;7.15;;;6.45;;
73850;SDS011;62190;51.548;5.688;2023-09-08T09:04:31;7.70;;;6.42;;
73850;SDS011;62190;51.548;5.688;2023-09-08T09:06:59;7.12;;;5.70;;
73850;SDS011;62190;51.548;5.688;2023-09-08T09:09:26;7.92;;;6.20;;
73850;SDS011;62190;51.548;5.688;2023-09-08T09:11:55;6.80;;;5.95;;
73850;SDS011;62190;51.548;5.688;2023-09-08T09:14:23;8.75;;;6.97;;
73850;SDS011;62190;51.548;5.688;2023-09-08T09:16:50;9.23;;;6.65;;
73850;SDS011;62190;51.548;5.688;2023-09-08T09:19:18;6.72;;;5.95;;
73850;SDS011;62190;51.548;5.688;2023-09-08T09:21:48;9.08;;;6.08;;
73850;SDS011;62190;51.548;5.688;2023-09-08T09:24:17;8.05;;;6.85;;
73850;SDS011;62190;51.548;5.688;2023-09-08T09:26:46;7.35;;;6.12;;
73850;SDS011;62190;51.548;5.688;2023-09-08T09:29:16;8.08;;;6.55;;
73850;SDS011;62190;51.548;5.688;2023-09-08T09:31:50;5.95;;;5.30;;
73850;SDS011;62190;51.548;5.688;2023-09-08T09:34:19;6.70;;;5.17;;
73850;SDS011;62190;51.548;5.688;2023-09-08T09:36:48;6.95;;;4.78;;
73850;SDS011;62190;51.548;5.688;2023-09-08T09:39:20;7.03;;;6.15;;
73850;SDS011;62190;51.548;5.688;2023-09-08T09:41:49;11.57;;;6.87;;
73850;SDS011;62190;51.548;5.688;2023-09-08T09:44:21;8.35;;;7.45;;
73850;SDS011;62190;51.548;5.688;2023-09-08T09:46:51;10.25;;;6.78;;
73850;SDS011;62190;51.548;5.688;2023-09-08T09:49:18;5.95;;;5.35;;
73850;SDS011;62190;51.548;5.688;2023-09-08T09:51:49;9.45;;;6.83;;
73850;SDS011;62190;51.548;5.688;2023-09-08T09:54:19;6.55;;;5.75;;
73850;SDS011;62190;51.548;5.688;2023-09-08T09:56:47;12.07;;;6.72;;
73850;SDS011;62190;51.548;5.688;2023-09-08T09:59:16;7.97;;;5.15;;
73850;SDS011;62190;51.548;5.688;2023-09-08T10:01:43;7.55;;;5.83;;
73850;SDS011;62190;51.548;5.688;2023-09-08T10:04:11;7.47;;;4.87;;
73850;SDS011;62190;51.548;5.688;2023-09-08T10:06:40;10.20;;;6.10;;
73850;SDS011;62190;51.548;5.688;2023-09-08T10:09:08;6.70;;;6.10;;
73850;SDS011;62190;51.548;5.688;2023-09-08T10:11:45;9.25;;;6.08;;
73850;SDS011;62190;51.548;5.688;2023-09-08T10:14:14;9.85;;;6.80;;
73850;SDS011;62190;51.548;5.688;2023-09-08T10:16:43;10.32;;;5.25;;
73850;SDS011;62190;51.548;5.688;2023-09-08T10:19:13;7.22;;;5.67;;
73850;SDS011;62190;51.548;5.688;2023-09-08T10:21:47;5.95;;;4.72;;
73850;SDS011;62190;51.548;5.688;2023-09-08T10:24:17;6.50;;;4.30;;
73850;SDS011;62190;51.548;5.688;2023-09-08T10:26:50;6.33;;;4.58;;
73850;SDS011;62190;51.548;5.688;2023-09-08T10:29:24;6.28;;;4.50;;
73850;SDS011;62190;51.548;5.688;2023-09-08T10:31:52;7.22;;;4.00;;
73850;SDS011;62190;51.548;5.688;2023-09-08T10:34:20;6.65;;;4.60;;
73850;SDS011;62190;51.548;5.688;2023-09-08T10:36:48;4.92;;;3.95;;
73850;SDS011;62190;51.548;5.688;2023-09-08T10:39:27;7.75;;;5.45;;
73850;SDS011;62190;51.548;5.688;2023-09-08T10:47:18;6.90;;;4.55;;
73850;SDS011;62190;51.548;5.688;2023-09-08T10:49:48;5.72;;;5.12;;
73850;SDS011;62190;51.548;5.688;2023-09-08T10:52:18;7.37;;;5.30;;
73850;SDS011;62190;51.548;5.688;2023-09-08T10:54:50;7.62;;;4.65;;
73850;SDS011;62190;51.548;5.688;2023-09-08T10:57:20;8.75;;;5.22;;
73850;SDS011;62190;51.548;5.688;2023-09-08T10:59:51;6.70;;;4.58;;
73850;SDS011;62190;51.548;5.688;2023-09-08T11:05:12;4.90;;;4.30;;
73850;SDS011;62190;51.548;5.688;2023-09-08T11:07:40;7.05;;;4.75;;
73850;SDS011;62190;51.548;5.688;2023-09-08T11:10:09;8.80;;;4.90;;
73850;SDS011;62190;51.548;5.688;2023-09-08T11:12:38;7.50;;;5.25;;
73850;SDS011;62190;51.548;5.688;2023-09-08T11:15:06;6.55;;;4.87;;
73850;SDS011;62190;51.548;5.688;2023-09-08T11:17:35;5.83;;;4.55;;
73850;SDS011;62190;51.548;5.688;2023-09-08T11:20:07;5.37;;;4.08;;
73850;SDS011;62190;51.548;5.688;2023-09-08T11:22:36;6.75;;;4.50;;
73850;SDS011;62190;51.548;5.688;2023-09-08T11:25:08;7.35;;;4.87;;
73850;SDS011;62190;51.548;5.688;2023-09-08T11:27:38;8.08;;;4.72;;
73850;SDS011;62190;51.548;5.688;2023-09-08T11:30:07;5.08;;;4.53;;
73850;SDS011;62190;51.548;5.688;2023-09-08T11:32:35;6.85;;;4.28;;
73850;SDS011;62190;51.548;5.688;2023-09-08T11:35:08;7.50;;;5.05;;
73850;SDS011;62190;51.548;5.688;2023-09-08T11:37:38;8.83;;;4.70;;
73850;SDS011;62190;51.548;5.688;2023-09-08T11:40:08;5.58;;;3.52;;
73850;SDS011;62190;51.548;5.688;2023-09-08T11:42:43;5.72;;;4.20;;
73850;SDS011;62190;51.548;5.688;2023-09-08T11:45:12;6.92;;;4.30;;
73850;SDS011;62190;51.548;5.688;2023-09-08T11:47:42;9.23;;;4.42;;
73850;SDS011;62190;51.548;5.688;2023-09-08T11:50:10;5.90;;;4.00;;
73850;SDS011;62190;51.548;5.688;2023-09-08T11:52:39;7.80;;;4.33;;
73850;SDS011;62190;51.548;5.688;2023-09-08T11:55:07;4.08;;;3.67;;
73850;SDS011;62190;51.548;5.688;2023-09-08T11:57:34;7.53;;;3.80;;
73850;SDS011;62190;51.548;5.688;2023-09-08T12:00:02;5.10;;;3.58;;
73850;SDS011;62190;51.548;5.688;2023-09-08T12:02:37;5.60;;;4.28;;
73850;SDS011;62190;51.548;5.688;2023-09-08T12:05:05;4.22;;;3.83;;
73850;SDS011;62190;51.548;5.688;2023-09-08T12:07:32;4.30;;;3.62;;
73850;SDS011;62190;51.548;5.688;2023-09-08T12:10:05;7.47;;;4.62;;
73850;SDS011;62190;51.548;5.688;2023-09-08T12:12:30;9.00;;;4.33;;
73850;SDS011;62190;51.548;5.688;2023-09-08T12:14:57;5.35;;;4.20;;
73850;SDS011;62190;51.548;5.688;2023-09-08T12:17:24;14.90;;;4.08;;
73850;SDS011;62190;51.548;5.688;2023-09-08T12:19:53;3.95;;;3.55;;
73850;SDS011;62190;51.548;5.688;2023-09-08T12:22:21;5.37;;;3.50;;
73850;SDS011;62190;51.548;5.688;2023-09-08T12:24:49;5.85;;;4.15;;
73850;SDS011;62190;51.548;5.688;2023-09-08T12:27:23;7.60;;;4.20;;
73850;SDS011;62190;51.548;5.688;2023-09-08T12:29:51;7.12;;;4.20;;
73850;SDS011;62190;51.548;5.688;2023-09-08T12:32:20;8.95;;;3.27;;
73850;SDS011;62190;51.548;5.688;2023-09-08T12:34:48;4.22;;;3.42;;
73850;SDS011;62190;51.548;5.688;2023-09-08T12:37:20;6.95;;;3.60;;
73850;SDS011;62190;51.548;5.688;2023-09-08T12:39:48;5.58;;;3.65;;
73850;SDS011;62190;51.548;5.688;2023-09-08T12:42:17;6.67;;;3.90;;
73850;SDS011;62190;51.548;5.688;2023-09-08T12:44:45;8.25;;;3.87;;
73850;SDS011;62190;51.548;5.688;2023-09-08T12:47:13;4.58;;;3.45;;
73850;SDS011;62190;51.548;5.688;2023-09-08T12:49:40;5.00;;;3.27;;
73850;SDS011;62190;51.548;5.688;2023-09-08T12:52:08;4.47;;;3.45;;
73850;SDS011;62190;51.548;5.688;2023-09-08T12:54:35;5.97;;;3.60;;
73850;SDS011;62190;51.548;5.688;2023-09-08T12:57:03;5.28;;;3.80;;
73850;SDS011;62190;51.548;5.688;2023-09-08T12:59:30;7.40;;;3.33;;
73850;SDS011;62190;51.548;5.688;2023-09-08T13:01:58;6.67;;;3.70;;
73850;SDS011;62190;51.548;5.688;2023-09-08T13:04:25;5.83;;;3.50;;
73850;SDS011;62190;51.548;5.688;2023-09-08T13:06:52;4.55;;;3.05;;
73850;SDS011;62190;51.548;5.688;2023-09-08T13:09:20;4.97;;;3.20;;
73850;SDS011;62190;51.548;5.688;2023-09-08T13:11:47;6.72;;;3.45;;
73850;SDS011;62190;51.548;5.688;2023-09-08T13:14:16;5.75;;;3.37;;
73850;SDS011;62190;51.548;5.688;2023-09-08T13:16:43;3.95;;;3.27;;
73850;SDS011;62190;51.548;5.688;2023-09-08T13:19:11;8.18;;;4.12;;
73850;SDS011;62190;51.548;5.688;2023-09-08T13:21:38;5.12;;;4.10;;
73850;SDS011;62190;51.548;5.688;2023-09-08T13:24:06;3.95;;;3.55;;
73850;SDS011;62190;51.548;5.688;2023-09-08T13:26:33;3.95;;;3.52;;
73850;SDS011;62190;51.548;5.688;2023-09-08T13:29:01;5.53;;;3.62;;
73850;SDS011;62190;51.548;5.688;2023-09-08T13:31:29;6.62;;;3.80;;
73850;SDS011;62190;51.548;5.688;2023-09-08T13:33:56;5.70;;;3.67;;
73850;SDS011;62190;51.548;5.688;2023-09-08T13:36:23;4.55;;;3.37;;
73850;SDS011;62190;51.548;5.688;2023-09-08T13:38:50;6.92;;;3.75;;
73850;SDS011;62190;51.548;5.688;2023-09-08T13:41:18;4.37;;;3.85;;
73850;SDS011;62190;51.548;5.688;2023-09-08T13:43:45;8.28;;;4.42;;
73850;SDS011;62190;51.548;5.688;2023-09-08T13:46:12;4.47;;;3.42;;
73850;SDS011;62190;51.548;5.688;2023-09-08T13:48:40;5.25;;;3.47;;
73850;SDS011;62190;51.548;5.688;2023-09-08T13:51:09;5.97;;;3.92;;
73850;SDS011;62190;51.548;5.688;2023-09-08T13:53:36;6.28;;;4.25;;
73850;SDS011;62190;51.548;5.688;2023-09-08T13:56:03;7.30;;;3.95;;
73850;SDS011;62190;51.548;5.688;2023-09-08T13:58:31;4.72;;;3.67;;
73850;SDS011;62190;51.548;5.688;2023-09-08T14:00:58;7.65;;;4.50;;
73850;SDS011;62190;51.548;5.688;2023-09-08T14:03:25;4.40;;;3.90;;
73850;SDS011;62190;51.548;5.688;2023-09-08T14:05:53;7.00;;;4.05;;
73850;SDS011;62190;51.548;5.688;2023-09-08T14:08:20;4.83;;;4.33;;
73850;SDS011;62190;51.548;5.688;2023-09-08T14:10:47;5.50;;;3.60;;
73850;SDS011;62190;51.548;5.688;2023-09-08T14:13:16;5.20;;;4.35;;
73850;SDS011;62190;51.548;5.688;2023-09-08T14:15:43;10.93;;;4.60;;
73850;SDS011;62190;51.548;5.688;2023-09-08T14:18:12;5.55;;;3.85;;
73850;SDS011;62190;51.548;5.688;2023-09-08T14:20:40;7.05;;;3.90;;
73850;SDS011;62190;51.548;5.688;2023-09-08T14:23:08;5.92;;;3.85;;
73850;SDS011;62190;51.548;5.688;2023-09-08T14:25:35;5.83;;;4.08;;
73850;SDS011;62190;51.548;5.688;2023-09-08T14:28:03;7.20;;;3.52;;
73850;SDS011;62190;51.548;5.688;2023-09-08T14:30:30;6.45;;;3.92;;
73850;SDS011;62190;51.548;5.688;2023-09-08T14:32:57;8.75;;;4.35;;
73850;SDS011;62190;51.548;5.688;2023-09-08T14:35:25;6.08;;;3.98;;
73850;SDS011;62190;51.548;5.688;2023-09-08T14:37:52;7.25;;;3.90;;
73850;SDS011;62190;51.548;5.688;2023-09-08T14:40:21;5.45;;;4.03;;
73850;SDS011;62190;51.548;5.688;2023-09-08T14:42:50;5.05;;;3.85;;
73850;SDS011;62190;51.548;5.688;2023-09-08T14:45:17;7.35;;;4.17;;
73850;SDS011;62190;51.548;5.688;2023-09-08T14:47:44;4.72;;;3.80;;